sensor_id;sensor_type;location;lat;lon;timestamp;P1;durP1;ratioP1;P2;durP2;ratioP2
6141;SDS011;71289;51.552;6.210;2024-02-16T00:02:19;3.90;;;2.00;;
6141;SDS011;71289;51.552;6.210;2024-02-16T00:04:45;4.20;;;1.50;;
6141;SDS011;71289;51.552;6.210;2024-02-16T00:07:10;1.87;;;1.77;;
6141;SDS011;71289;51.552;6.210;2024-02-16T00:09:36;2.03;;;1.50;;
6141;SDS011;71289;51.552;6.210;2024-02-16T00:12:01;2.40;;;1.80;;
6141;SDS011;71289;51.552;6.210;2024-02-16T00:14:27;6.87;;;2.10;;
6141;SDS011;71289;51.552;6.210;2024-02-16T00:16:53;2.43;;;2.20;;
6141;SDS011;71289;51.552;6.210;2024-02-16T00:19:18;3.73;;;1.97;;
6141;SDS011;71289;51.552;6.210;2024-02-16T00:21:44;4.07;;;1.77;;
6141;SDS011;71289;51.552;6.210;2024-02-16T00:24:10;1.83;;;1.17;;
6141;SDS011;71289;51.552;6.210;2024-02-16T00:26:36;6.20;;;2.07;;
6141;SDS011;71289;51.552;6.210;2024-02-16T00:29:01;7.50;;;1.77;;
6141;SDS011;71289;51.552;6.210;2024-02-16T00:31:27;19.80;;;2.20;;
6141;SDS011;71289;51.552;6.210;2024-02-16T00:33:53;3.60;;;1.63;;
6141;SDS011;71289;51.552;6.210;2024-02-16T00:36:18;2.87;;;2.00;;
6141;SDS011;71289;51.552;6.210;2024-02-16T00:38:44;1.20;;;1.10;;
6141;SDS011;71289;51.552;6.210;2024-02-16T00:41:16;5.03;;;2.10;;
6141;SDS011;71289;51.552;6.210;2024-02-16T00:43:43;2.93;;;2.00;;
6141;SDS011;71289;51.552;6.210;2024-02-16T00:46:09;4.93;;;3.07;;
6141;SDS011;71289;51.552;6.210;2024-02-16T00:48:35;2.70;;;1.40;;
6141;SDS011;71289;51.552;6.210;2024-02-16T00:51:01;9.97;;;2.40;;
6141;SDS011;71289;51.552;6.210;2024-02-16T00:53:27;1.77;;;1.60;;
6141;SDS011;71289;51.552;6.210;2024-02-16T00:55:52;1.43;;;1.33;;
6141;SDS011;71289;51.552;6.210;2024-02-16T00:58:18;4.60;;;2.87;;
6141;SDS011;71289;51.552;6.210;2024-02-16T01:00:44;2.37;;;1.50;;
6141;SDS011;71289;51.552;6.210;2024-02-16T01:03:10;2.87;;;1.60;;
6141;SDS011;71289;51.552;6.210;2024-02-16T01:05:37;2.50;;;1.53;;
6141;SDS011;71289;51.552;6.210;2024-02-16T01:08:05;1.43;;;1.30;;
6141;SDS011;71289;51.552;6.210;2024-02-16T01:10:31;2.10;;;1.60;;
6141;SDS011;71289;51.552;6.210;2024-02-16T01:12:56;5.60;;;1.87;;
6141;SDS011;71289;51.552;6.210;2024-02-16T01:15:22;12.03;;;1.80;;
6141;SDS011;71289;51.552;6.210;2024-02-16T01:17:47;2.13;;;1.70;;
6141;SDS011;71289;51.552;6.210;2024-02-16T01:20:13;1.57;;;1.40;;
6141;SDS011;71289;51.552;6.210;2024-02-16T01:22:39;7.73;;;2.27;;
6141;SDS011;71289;51.552;6.210;2024-02-16T01:25:05;5.03;;;2.13;;
6141;SDS011;71289;51.552;6.210;2024-02-16T01:27:32;3.67;;;2.10;;
6141;SDS011;71289;51.552;6.210;2024-02-16T01:29:58;3.60;;;1.97;;
6141;SDS011;71289;51.552;6.210;2024-02-16T01:32:23;7.53;;;1.80;;
6141;SDS011;71289;51.552;6.210;2024-02-16T01:34:49;1.73;;;1.50;;
6141;SDS011;71289;51.552;6.210;2024-02-16T01:37:15;3.13;;;1.67;;
6141;SDS011;71289;51.552;6.210;2024-02-16T01:39:40;2.97;;;1.20;;
6141;SDS011;71289;51.552;6.210;2024-02-16T01:42:07;4.50;;;2.53;;
6141;SDS011;71289;51.552;6.210;2024-02-16T01:44:32;3.43;;;1.50;;
6141;SDS011;71289;51.552;6.210;2024-02-16T01:46:58;4.33;;;1.80;;
6141;SDS011;71289;51.552;6.210;2024-02-16T01:49:24;2.30;;;1.87;;
6141;SDS011;71289;51.552;6.210;2024-02-16T01:51:49;3.83;;;2.97;;
6141;SDS011;71289;51.552;6.210;2024-02-16T01:54:15;3.00;;;1.83;;
6141;SDS011;71289;51.552;6.210;2024-02-16T01:56:42;9.40;;;2.70;;
6141;SDS011;71289;51.552;6.210;2024-02-16T01:59:09;9.10;;;1.60;;
6141;SDS011;71289;51.552;6.210;2024-02-16T02:01:35;2.83;;;2.30;;
6141;SDS011;71289;51.552;6.210;2024-02-16T02:04:01;8.47;;;2.90;;
6141;SDS011;71289;51.552;6.210;2024-02-16T02:06:27;3.07;;;2.00;;
6141;SDS011;71289;51.552;6.210;2024-02-16T02:08:52;2.67;;;2.43;;
6141;SDS011;71289;51.552;6.210;2024-02-16T02:11:18;1.80;;;1.60;;
6141;SDS011;71289;51.552;6.210;2024-02-16T02:13:44;1.33;;;1.23;;
6141;SDS011;71289;51.552;6.210;2024-02-16T02:16:10;4.00;;;2.00;;
6141;SDS011;71289;51.552;6.210;2024-02-16T02:18:36;2.37;;;1.63;;
6141;SDS011;71289;51.552;6.210;2024-02-16T02:21:02;2.27;;;1.90;;
6141;SDS011;71289;51.552;6.210;2024-02-16T02:23:27;3.23;;;1.20;;
6141;SDS011;71289;51.552;6.210;2024-02-16T02:25:53;1.87;;;1.77;;
6141;SDS011;71289;51.552;6.210;2024-02-16T02:28:19;5.20;;;1.80;;
6141;SDS011;71289;51.552;6.210;2024-02-16T02:30:45;2.50;;;2.30;;
6141;SDS011;71289;51.552;6.210;2024-02-16T02:33:12;3.43;;;1.50;;
6141;SDS011;71289;51.552;6.210;2024-02-16T02:35:38;5.33;;;1.90;;
6141;SDS011;71289;51.552;6.210;2024-02-16T02:38:04;4.20;;;1.97;;
6141;SDS011;71289;51.552;6.210;2024-02-16T02:40:30;2.50;;;1.73;;
6141;SDS011;71289;51.552;6.210;2024-02-16T02:42:57;3.93;;;1.97;;
6141;SDS011;71289;51.552;6.210;2024-02-16T02:45:23;2.47;;;2.20;;
6141;SDS011;71289;51.552;6.210;2024-02-16T02:47:49;4.00;;;2.77;;
6141;SDS011;71289;51.552;6.210;2024-02-16T02:50:15;4.40;;;2.20;;
6141;SDS011;71289;51.552;6.210;2024-02-16T02:52:41;4.10;;;1.93;;
6141;SDS011;71289;51.552;6.210;2024-02-16T02:55:07;8.50;;;2.57;;
6141;SDS011;71289;51.552;6.210;2024-02-16T02:57:32;3.33;;;2.00;;
6141;SDS011;71289;51.552;6.210;2024-02-16T03:00:07;1.97;;;1.83;;
6141;SDS011;71289;51.552;6.210;2024-02-16T03:02:39;2.10;;;1.33;;
6141;SDS011;71289;51.552;6.210;2024-02-16T03:05:05;6.23;;;1.53;;
6141;SDS011;71289;51.552;6.210;2024-02-16T03:07:35;5.73;;;1.90;;
6141;SDS011;71289;51.552;6.210;2024-02-16T03:10:01;4.13;;;2.40;;
6141;SDS011;71289;51.552;6.210;2024-02-16T03:12:28;1.57;;;1.40;;
6141;SDS011;71289;51.552;6.210;2024-02-16T03:14:54;7.80;;;1.80;;
6141;SDS011;71289;51.552;6.210;2024-02-16T03:17:19;2.17;;;1.93;;
6141;SDS011;71289;51.552;6.210;2024-02-16T03:19:45;4.10;;;2.63;;
6141;SDS011;71289;51.552;6.210;2024-02-16T03:22:12;2.50;;;2.03;;
6141;SDS011;71289;51.552;6.210;2024-02-16T03:24:37;3.00;;;2.60;;
6141;SDS011;71289;51.552;6.210;2024-02-16T03:27:03;2.60;;;1.80;;
6141;SDS011;71289;51.552;6.210;2024-02-16T03:29:29;2.07;;;1.87;;
6141;SDS011;71289;51.552;6.210;2024-02-16T03:31:54;1.80;;;1.70;;
6141;SDS011;71289;51.552;6.210;2024-02-16T03:34:20;3.70;;;2.30;;
6141;SDS011;71289;51.552;6.210;2024-02-16T03:36:45;2.27;;;2.17;;
6141;SDS011;71289;51.552;6.210;2024-02-16T03:39:11;2.13;;;1.90;;
6141;SDS011;71289;51.552;6.210;2024-02-16T03:41:37;10.40;;;2.33;;
6141;SDS011;71289;51.552;6.210;2024-02-16T03:44:02;2.23;;;1.83;;
6141;SDS011;71289;51.552;6.210;2024-02-16T03:46:28;13.70;;;2.30;;
6141;SDS011;71289;51.552;6.210;2024-02-16T03:48:53;4.53;;;2.13;;
6141;SDS011;71289;51.552;6.210;2024-02-16T03:51:19;1.83;;;1.60;;
6141;SDS011;71289;51.552;6.210;2024-02-16T03:53:45;2.10;;;1.90;;
6141;SDS011;71289;51.552;6.210;2024-02-16T03:56:11;2.40;;;1.77;;
6141;SDS011;71289;51.552;6.210;2024-02-16T03:58:37;2.07;;;1.87;;
6141;SDS011;71289;51.552;6.210;2024-02-16T04:01:03;3.20;;;1.90;;
6141;SDS011;71289;51.552;6.210;2024-02-16T04:03:31;3.17;;;2.03;;
6141;SDS011;71289;51.552;6.210;2024-02-16T04:05:57;2.37;;;1.87;;
6141;SDS011;71289;51.552;6.210;2024-02-16T04:08:24;4.83;;;2.13;;
6141;SDS011;71289;51.552;6.210;2024-02-16T04:10:50;2.00;;;1.73;;
6141;SDS011;71289;51.552;6.210;2024-02-16T04:13:15;4.27;;;2.30;;
6141;SDS011;71289;51.552;6.210;2024-02-16T04:15:41;3.80;;;2.30;;
6141;SDS011;71289;51.552;6.210;2024-02-16T04:18:07;3.17;;;2.10;;
6141;SDS011;71289;51.552;6.210;2024-02-16T04:20:32;3.40;;;2.00;;
6141;SDS011;71289;51.552;6.210;2024-02-16T04:22:58;12.20;;;1.80;;
6141;SDS011;71289;51.552;6.210;2024-02-16T04:25:24;3.33;;;2.57;;
6141;SDS011;71289;51.552;6.210;2024-02-16T04:27:50;3.70;;;2.00;;
6141;SDS011;71289;51.552;6.210;2024-02-16T04:30:16;2.67;;;2.47;;
6141;SDS011;71289;51.552;6.210;2024-02-16T04:32:41;3.37;;;1.90;;
6141;SDS011;71289;51.552;6.210;2024-02-16T04:35:07;4.07;;;2.00;;
6141;SDS011;71289;51.552;6.210;2024-02-16T04:37:36;2.83;;;2.50;;
6141;SDS011;71289;51.552;6.210;2024-02-16T04:40:05;3.60;;;2.30;;
6141;SDS011;71289;51.552;6.210;2024-02-16T04:42:31;3.53;;;2.50;;
6141;SDS011;71289;51.552;6.210;2024-02-16T04:44:57;5.40;;;2.83;;
6141;SDS011;71289;51.552;6.210;2024-02-16T04:47:24;1.70;;;1.60;;
6141;SDS011;71289;51.552;6.210;2024-02-16T04:49:50;3.40;;;1.80;;
6141;SDS011;71289;51.552;6.210;2024-02-16T04:52:16;3.20;;;1.83;;
6141;SDS011;71289;51.552;6.210;2024-02-16T04:54:41;5.83;;;2.03;;
6141;SDS011;71289;51.552;6.210;2024-02-16T04:57:07;4.10;;;1.90;;
6141;SDS011;71289;51.552;6.210;2024-02-16T04:59:33;6.13;;;2.13;;
6141;SDS011;71289;51.552;6.210;2024-02-16T05:01:58;1.73;;;1.63;;
6141;SDS011;71289;51.552;6.210;2024-02-16T05:04:24;9.00;;;2.40;;
6141;SDS011;71289;51.552;6.210;2024-02-16T05:06:49;2.33;;;2.13;;
6141;SDS011;71289;51.552;6.210;2024-02-16T05:09:17;3.17;;;2.20;;
6141;SDS011;71289;51.552;6.210;2024-02-16T05:11:43;2.83;;;1.50;;
6141;SDS011;71289;51.552;6.210;2024-02-16T05:14:10;2.97;;;1.80;;
6141;SDS011;71289;51.552;6.210;2024-02-16T05:16:42;2.87;;;1.83;;
6141;SDS011;71289;51.552;6.210;2024-02-16T05:19:08;4.43;;;2.40;;
6141;SDS011;71289;51.552;6.210;2024-02-16T05:21:34;2.40;;;1.80;;
6141;SDS011;71289;51.552;6.210;2024-02-16T05:24:00;4.30;;;2.40;;
6141;SDS011;71289;51.552;6.210;2024-02-16T05:26:25;3.27;;;2.57;;
6141;SDS011;71289;51.552;6.210;2024-02-16T05:28:51;3.57;;;3.27;;
6141;SDS011;71289;51.552;6.210;2024-02-16T05:31:17;4.47;;;1.80;;
6141;SDS011;71289;51.552;6.210;2024-02-16T05:33:49;3.60;;;2.27;;
6141;SDS011;71289;51.552;6.210;2024-02-16T05:36:19;3.13;;;1.70;;
6141;SDS011;71289;51.552;6.210;2024-02-16T05:38:46;2.00;;;1.80;;
6141;SDS011;71289;51.552;6.210;2024-02-16T05:41:12;6.77;;;2.80;;
6141;SDS011;71289;51.552;6.210;2024-02-16T05:43:37;7.20;;;2.10;;
6141;SDS011;71289;51.552;6.210;2024-02-16T05:46:04;11.70;;;1.73;;
6141;SDS011;71289;51.552;6.210;2024-02-16T05:48:33;1.70;;;1.60;;
6141;SDS011;71289;51.552;6.210;2024-02-16T05:51:02;5.63;;;2.60;;
6141;SDS011;71289;51.552;6.210;2024-02-16T05:53:28;6.63;;;2.50;;
6141;SDS011;71289;51.552;6.210;2024-02-16T05:55:54;3.57;;;2.40;;
6141;SDS011;71289;51.552;6.210;2024-02-16T05:58:20;3.17;;;2.67;;
6141;SDS011;71289;51.552;6.210;2024-02-16T06:00:46;3.13;;;1.73;;
6141;SDS011;71289;51.552;6.210;2024-02-16T06:03:13;4.00;;;2.27;;
6141;SDS011;71289;51.552;6.210;2024-02-16T06:05:39;2.47;;;1.57;;
6141;SDS011;71289;51.552;6.210;2024-02-16T06:08:06;5.30;;;1.83;;
6141;SDS011;71289;51.552;6.210;2024-02-16T06:10:32;2.93;;;2.63;;
6141;SDS011;71289;51.552;6.210;2024-02-16T06:12:58;3.37;;;1.87;;
6141;SDS011;71289;51.552;6.210;2024-02-16T06:15:24;2.10;;;2.00;;
6141;SDS011;71289;51.552;6.210;2024-02-16T06:17:50;3.63;;;2.83;;
6141;SDS011;71289;51.552;6.210;2024-02-16T06:20:16;3.43;;;2.60;;
6141;SDS011;71289;51.552;6.210;2024-02-16T06:22:41;2.50;;;2.30;;
6141;SDS011;71289;51.552;6.210;2024-02-16T06:25:07;5.53;;;2.50;;
6141;SDS011;71289;51.552;6.210;2024-02-16T06:27:33;2.80;;;2.00;;
6141;SDS011;71289;51.552;6.210;2024-02-16T06:29:59;2.30;;;1.87;;
6141;SDS011;71289;51.552;6.210;2024-02-16T06:32:25;3.37;;;1.77;;
6141;SDS011;71289;51.552;6.210;2024-02-16T06:34:51;3.60;;;2.60;;
6141;SDS011;71289;51.552;6.210;2024-02-16T06:37:17;5.53;;;2.37;;
6141;SDS011;71289;51.552;6.210;2024-02-16T06:39:43;4.77;;;2.57;;
6141;SDS011;71289;51.552;6.210;2024-02-16T06:42:09;3.40;;;2.40;;
6141;SDS011;71289;51.552;6.210;2024-02-16T06:44:37;4.40;;;2.13;;
6141;SDS011;71289;51.552;6.210;2024-02-16T06:47:05;2.60;;;1.70;;
6141;SDS011;71289;51.552;6.210;2024-02-16T06:49:31;4.73;;;2.20;;
6141;SDS011;71289;51.552;6.210;2024-02-16T06:51:57;3.47;;;1.80;;
6141;SDS011;71289;51.552;6.210;2024-02-16T06:54:22;2.40;;;1.80;;
6141;SDS011;71289;51.552;6.210;2024-02-16T06:56:51;3.40;;;1.90;;
6141;SDS011;71289;51.552;6.210;2024-02-16T06:59:17;2.03;;;1.83;;
6141;SDS011;71289;51.552;6.210;2024-02-16T07:01:42;2.57;;;2.17;;
6141;SDS011;71289;51.552;6.210;2024-02-16T07:04:08;4.37;;;2.20;;
6141;SDS011;71289;51.552;6.210;2024-02-16T07:06:34;1.90;;;1.70;;
6141;SDS011;71289;51.552;6.210;2024-02-16T07:09:00;3.90;;;2.10;;
6141;SDS011;71289;51.552;6.210;2024-02-16T07:11:27;2.33;;;1.90;;
6141;SDS011;71289;51.552;6.210;2024-02-16T07:13:53;1.90;;;1.80;;
6141;SDS011;71289;51.552;6.210;2024-02-16T07:16:19;2.53;;;2.33;;
6141;SDS011;71289;51.552;6.210;2024-02-16T07:18:44;7.47;;;1.93;;
6141;SDS011;71289;51.552;6.210;2024-02-16T07:21:10;11.73;;;2.17;;
6141;SDS011;71289;51.552;6.210;2024-02-16T07:23:36;3.10;;;1.57;;
6141;SDS011;71289;51.552;6.210;2024-02-16T07:26:03;2.00;;;1.80;;
6141;SDS011;71289;51.552;6.210;2024-02-16T07:28:28;1.83;;;1.40;;
6141;SDS011;71289;51.552;6.210;2024-02-16T07:30:54;2.03;;;1.67;;
6141;SDS011;71289;51.552;6.210;2024-02-16T07:33:20;3.53;;;2.30;;
6141;SDS011;71289;51.552;6.210;2024-02-16T07:35:46;3.40;;;2.20;;
6141;SDS011;71289;51.552;6.210;2024-02-16T07:38:12;2.13;;;1.80;;
6141;SDS011;71289;51.552;6.210;2024-02-16T07:40:38;2.30;;;2.07;;
6141;SDS011;71289;51.552;6.210;2024-02-16T07:43:04;2.37;;;2.17;;
6141;SDS011;71289;51.552;6.210;2024-02-16T07:45:30;2.77;;;2.17;;
6141;SDS011;71289;51.552;6.210;2024-02-16T07:47:56;7.30;;;3.00;;
6141;SDS011;71289;51.552;6.210;2024-02-16T07:50:22;3.53;;;2.43;;
6141;SDS011;71289;51.552;6.210;2024-02-16T07:52:49;4.77;;;1.63;;
6141;SDS011;71289;51.552;6.210;2024-02-16T07:55:15;1.93;;;1.83;;
6141;SDS011;71289;51.552;6.210;2024-02-16T07:57:43;3.27;;;1.53;;
6141;SDS011;71289;51.552;6.210;2024-02-16T08:00:09;2.37;;;2.13;;
6141;SDS011;71289;51.552;6.210;2024-02-16T08:02:36;4.83;;;1.93;;
6141;SDS011;71289;51.552;6.210;2024-02-16T08:05:02;2.73;;;2.30;;
6141;SDS011;71289;51.552;6.210;2024-02-16T08:07:28;2.00;;;1.90;;
6141;SDS011;71289;51.552;6.210;2024-02-16T08:09:53;3.47;;;1.90;;
6141;SDS011;71289;51.552;6.210;2024-02-16T08:12:19;3.13;;;2.30;;
6141;SDS011;71289;51.552;6.210;2024-02-16T08:14:44;2.63;;;2.00;;
6141;SDS011;71289;51.552;6.210;2024-02-16T08:17:11;3.27;;;2.20;;
6141;SDS011;71289;51.552;6.210;2024-02-16T08:19:37;2.80;;;2.13;;
6141;SDS011;71289;51.552;6.210;2024-02-16T08:22:03;1.67;;;1.57;;
6141;SDS011;71289;51.552;6.210;2024-02-16T08:24:33;2.17;;;1.80;;
6141;SDS011;71289;51.552;6.210;2024-02-16T08:26:59;2.27;;;2.00;;
6141;SDS011;71289;51.552;6.210;2024-02-16T08:29:25;5.60;;;2.50;;
6141;SDS011;71289;51.552;6.210;2024-02-16T08:31:50;2.10;;;1.57;;
6141;SDS011;71289;51.552;6.210;2024-02-16T08:34:17;2.83;;;2.20;;
6141;SDS011;71289;51.552;6.210;2024-02-16T08:36:49;3.70;;;1.90;;
6141;SDS011;71289;51.552;6.210;2024-02-16T08:39:15;2.20;;;2.10;;
6141;SDS011;71289;51.552;6.210;2024-02-16T08:41:41;5.40;;;2.20;;
6141;SDS011;71289;51.552;6.210;2024-02-16T08:44:13;9.93;;;4.27;;
6141;SDS011;71289;51.552;6.210;2024-02-16T08:46:39;5.60;;;2.17;;
6141;SDS011;71289;51.552;6.210;2024-02-16T08:49:05;2.30;;;2.10;;
6141;SDS011;71289;51.552;6.210;2024-02-16T08:51:34;7.83;;;1.90;;
6141;SDS011;71289;51.552;6.210;2024-02-16T08:53:59;2.93;;;2.63;;
6141;SDS011;71289;51.552;6.210;2024-02-16T08:56:26;2.33;;;2.20;;
6141;SDS011;71289;51.552;6.210;2024-02-16T08:58:53;9.20;;;2.73;;
6141;SDS011;71289;51.552;6.210;2024-02-16T09:01:29;6.40;;;2.20;;
6141;SDS011;71289;51.552;6.210;2024-02-16T09:03:58;5.33;;;2.53;;
6141;SDS011;71289;51.552;6.210;2024-02-16T09:06:24;3.93;;;3.10;;
6141;SDS011;71289;51.552;6.210;2024-02-16T09:08:50;7.03;;;2.33;;
6141;SDS011;71289;51.552;6.210;2024-02-16T09:11:15;9.03;;;2.93;;
6141;SDS011;71289;51.552;6.210;2024-02-16T09:13:42;3.93;;;1.83;;
6141;SDS011;71289;51.552;6.210;2024-02-16T09:16:08;4.10;;;2.50;;
6141;SDS011;71289;51.552;6.210;2024-02-16T09:18:33;2.80;;;2.33;;
6141;SDS011;71289;51.552;6.210;2024-02-16T09:20:59;5.30;;;2.80;;
6141;SDS011;71289;51.552;6.210;2024-02-16T09:23:25;5.77;;;2.60;;
6141;SDS011;71289;51.552;6.210;2024-02-16T09:25:51;2.70;;;2.50;;
6141;SDS011;71289;51.552;6.210;2024-02-16T09:28:17;4.27;;;2.57;;
6141;SDS011;71289;51.552;6.210;2024-02-16T09:30:47;8.13;;;2.50;;
6141;SDS011;71289;51.552;6.210;2024-02-16T09:33:12;7.00;;;2.50;;
6141;SDS011;71289;51.552;6.210;2024-02-16T09:35:41;4.70;;;2.63;;
6141;SDS011;71289;51.552;6.210;2024-02-16T09:38:07;4.93;;;2.43;;
6141;SDS011;71289;51.552;6.210;2024-02-16T09:40:35;4.80;;;2.10;;
6141;SDS011;71289;51.552;6.210;2024-02-16T09:43:01;2.33;;;2.13;;
6141;SDS011;71289;51.552;6.210;2024-02-16T09:45:27;3.40;;;2.40;;
6141;SDS011;71289;51.552;6.210;2024-02-16T09:47:54;2.87;;;2.67;;
6141;SDS011;71289;51.552;6.210;2024-02-16T09:50:20;3.73;;;2.20;;
6141;SDS011;71289;51.552;6.210;2024-02-16T09:52:47;6.80;;;3.20;;
6141;SDS011;71289;51.552;6.210;2024-02-16T09:55:14;6.00;;;3.63;;
6141;SDS011;71289;51.552;6.210;2024-02-16T09:57:40;3.50;;;2.10;;
6141;SDS011;71289;51.552;6.210;2024-02-16T10:00:06;5.50;;;2.60;;
6141;SDS011;71289;51.552;6.210;2024-02-16T10:02:43;4.07;;;2.97;;
6141;SDS011;71289;51.552;6.210;2024-02-16T10:07:36;3.73;;;2.77;;
6141;SDS011;71289;51.552;6.210;2024-02-16T10:10:02;3.70;;;3.20;;
6141;SDS011;71289;51.552;6.210;2024-02-16T10:12:28;7.43;;;3.33;;
6141;SDS011;71289;51.552;6.210;2024-02-16T10:14:54;5.40;;;3.00;;
6141;SDS011;71289;51.552;6.210;2024-02-16T10:17:21;5.23;;;2.57;;
6141;SDS011;71289;51.552;6.210;2024-02-16T10:19:55;4.63;;;3.27;;
6141;SDS011;71289;51.552;6.210;2024-02-16T10:22:24;6.10;;;3.00;;
6141;SDS011;71289;51.552;6.210;2024-02-16T10:24:49;5.33;;;3.47;;
6141;SDS011;71289;51.552;6.210;2024-02-16T10:27:18;2.60;;;2.40;;
6141;SDS011;71289;51.552;6.210;2024-02-16T10:29:46;11.60;;;3.30;;
6141;SDS011;71289;51.552;6.210;2024-02-16T10:32:15;3.40;;;2.40;;
6141;SDS011;71289;51.552;6.210;2024-02-16T10:34:41;16.53;;;3.27;;
6141;SDS011;71289;51.552;6.210;2024-02-16T10:37:08;6.20;;;3.20;;
6141;SDS011;71289;51.552;6.210;2024-02-16T10:39:34;7.17;;;4.00;;
6141;SDS011;71289;51.552;6.210;2024-02-16T10:42:01;3.80;;;2.90;;
6141;SDS011;71289;51.552;6.210;2024-02-16T10:44:27;3.80;;;2.40;;
6141;SDS011;71289;51.552;6.210;2024-02-16T10:46:54;3.90;;;2.70;;
6141;SDS011;71289;51.552;6.210;2024-02-16T10:49:21;6.10;;;3.43;;
6141;SDS011;71289;51.552;6.210;2024-02-16T10:51:49;5.97;;;3.30;;
6141;SDS011;71289;51.552;6.210;2024-02-16T10:54:23;8.27;;;4.83;;
6141;SDS011;71289;51.552;6.210;2024-02-16T10:56:54;6.60;;;2.70;;
6141;SDS011;71289;51.552;6.210;2024-02-16T10:59:20;4.27;;;3.20;;
6141;SDS011;71289;51.552;6.210;2024-02-16T11:01:45;3.43;;;2.77;;
6141;SDS011;71289;51.552;6.210;2024-02-16T11:04:13;3.77;;;3.07;;
6141;SDS011;71289;51.552;6.210;2024-02-16T11:06:47;4.53;;;3.20;;
6141;SDS011;71289;51.552;6.210;2024-02-16T11:12:03;4.40;;;3.17;;
6141;SDS011;71289;51.552;6.210;2024-02-16T11:14:36;4.10;;;3.40;;
6141;SDS011;71289;51.552;6.210;2024-02-16T11:17:09;4.00;;;3.07;;
6141;SDS011;71289;51.552;6.210;2024-02-16T11:19:37;7.10;;;4.17;;
6141;SDS011;71289;51.552;6.210;2024-02-16T11:22:09;3.30;;;3.00;;
6141;SDS011;71289;51.552;6.210;2024-02-16T11:24:37;6.23;;;3.37;;
6141;SDS011;71289;51.552;6.210;2024-02-16T11:27:10;5.10;;;3.50;;
6141;SDS011;71289;51.552;6.210;2024-02-16T11:29:36;5.00;;;4.00;;
6141;SDS011;71289;51.552;6.210;2024-02-16T11:32:03;10.00;;;3.63;;
6141;SDS011;71289;51.552;6.210;2024-02-16T11:34:30;10.47;;;3.50;;
6141;SDS011;71289;51.552;6.210;2024-02-16T11:36:58;9.73;;;4.07;;
6141;SDS011;71289;51.552;6.210;2024-02-16T11:39:24;8.20;;;2.90;;
6141;SDS011;71289;51.552;6.210;2024-02-16T11:44:27;5.53;;;3.47;;
6141;SDS011;71289;51.552;6.210;2024-02-16T11:46:57;5.97;;;2.97;;
6141;SDS011;71289;51.552;6.210;2024-02-16T11:49:23;6.67;;;4.07;;
6141;SDS011;71289;51.552;6.210;2024-02-16T11:51:48;20.67;;;4.57;;
6141;SDS011;71289;51.552;6.210;2024-02-16T11:54:14;5.70;;;3.93;;
6141;SDS011;71289;51.552;6.210;2024-02-16T11:56:42;8.27;;;3.87;;
6141;SDS011;71289;51.552;6.210;2024-02-16T11:59:14;8.50;;;4.40;;
6141;SDS011;71289;51.552;6.210;2024-02-16T12:01:56;5.90;;;4.13;;
6141;SDS011;71289;51.552;6.210;2024-02-16T12:04:24;4.27;;;3.87;;
6141;SDS011;71289;51.552;6.210;2024-02-16T12:06:56;4.97;;;3.73;;
6141;SDS011;71289;51.552;6.210;2024-02-16T12:09:23;10.37;;;4.70;;
6141;SDS011;71289;51.552;6.210;2024-02-16T12:11:50;6.67;;;4.00;;
6141;SDS011;71289;51.552;6.210;2024-02-16T12:14:17;4.67;;;3.23;;
6141;SDS011;71289;51.552;6.210;2024-02-16T12:16:47;7.00;;;3.67;;
6141;SDS011;71289;51.552;6.210;2024-02-16T12:19:16;4.57;;;3.93;;
6141;SDS011;71289;51.552;6.210;2024-02-16T12:21:45;6.83;;;4.60;;
6141;SDS011;71289;51.552;6.210;2024-02-16T12:24:14;5.70;;;4.20;;
6141;SDS011;71289;51.552;6.210;2024-02-16T12:26:40;8.60;;;4.20;;
6141;SDS011;71289;51.552;6.210;2024-02-16T12:29:06;10.20;;;5.50;;
6141;SDS011;71289;51.552;6.210;2024-02-16T12:31:32;11.83;;;5.10;;
6141;SDS011;71289;51.552;6.210;2024-02-16T12:33:57;11.20;;;5.53;;
6141;SDS011;71289;51.552;6.210;2024-02-16T12:36:23;14.80;;;6.53;;
6141;SDS011;71289;51.552;6.210;2024-02-16T12:38:49;16.53;;;5.50;;
6141;SDS011;71289;51.552;6.210;2024-02-16T12:41:15;11.07;;;4.63;;
6141;SDS011;71289;51.552;6.210;2024-02-16T12:43:41;9.63;;;5.37;;
6141;SDS011;71289;51.552;6.210;2024-02-16T12:46:06;11.57;;;5.50;;
6141;SDS011;71289;51.552;6.210;2024-02-16T12:48:32;10.73;;;6.63;;
6141;SDS011;71289;51.552;6.210;2024-02-16T12:50:57;8.37;;;5.50;;
6141;SDS011;71289;51.552;6.210;2024-02-16T12:53:23;7.27;;;5.13;;
6141;SDS011;71289;51.552;6.210;2024-02-16T12:55:50;8.47;;;4.83;;
6141;SDS011;71289;51.552;6.210;2024-02-16T12:58:16;8.23;;;5.60;;
6141;SDS011;71289;51.552;6.210;2024-02-16T13:00:41;7.10;;;5.20;;
6141;SDS011;71289;51.552;6.210;2024-02-16T13:03:07;7.60;;;5.93;;
6141;SDS011;71289;51.552;6.210;2024-02-16T13:05:33;12.13;;;5.20;;
6141;SDS011;71289;51.552;6.210;2024-02-16T13:07:59;10.63;;;5.53;;
6141;SDS011;71289;51.552;6.210;2024-02-16T13:10:24;7.83;;;5.40;;
6141;SDS011;71289;51.552;6.210;2024-02-16T13:12:50;8.20;;;5.50;;
6141;SDS011;71289;51.552;6.210;2024-02-16T13:15:16;15.70;;;6.80;;
6141;SDS011;71289;51.552;6.210;2024-02-16T13:17:41;15.37;;;6.97;;
6141;SDS011;71289;51.552;6.210;2024-02-16T13:20:07;8.20;;;6.30;;
6141;SDS011;71289;51.552;6.210;2024-02-16T13:22:34;9.93;;;7.17;;
6141;SDS011;71289;51.552;6.210;2024-02-16T13:25:01;14.73;;;8.27;;
6141;SDS011;71289;51.552;6.210;2024-02-16T13:27:28;9.17;;;5.90;;
6141;SDS011;71289;51.552;6.210;2024-02-16T13:29:54;14.80;;;6.90;;
6141;SDS011;71289;51.552;6.210;2024-02-16T13:32:19;17.80;;;7.63;;
6141;SDS011;71289;51.552;6.210;2024-02-16T13:34:45;14.50;;;7.47;;
6141;SDS011;71289;51.552;6.210;2024-02-16T13:37:11;10.97;;;7.30;;
6141;SDS011;71289;51.552;6.210;2024-02-16T13:39:36;9.83;;;6.67;;
6141;SDS011;71289;51.552;6.210;2024-02-16T13:42:02;9.53;;;8.00;;
6141;SDS011;71289;51.552;6.210;2024-02-16T13:44:28;11.40;;;8.40;;
6141;SDS011;71289;51.552;6.210;2024-02-16T13:46:53;11.77;;;6.93;;
6141;SDS011;71289;51.552;6.210;2024-02-16T13:49:19;10.63;;;6.80;;
6141;SDS011;71289;51.552;6.210;2024-02-16T13:51:45;8.07;;;7.20;;
6141;SDS011;71289;51.552;6.210;2024-02-16T13:54:10;10.83;;;6.97;;
6141;SDS011;71289;51.552;6.210;2024-02-16T13:56:36;11.10;;;7.50;;
6141;SDS011;71289;51.552;6.210;2024-02-16T13:59:03;11.83;;;7.00;;
6141;SDS011;71289;51.552;6.210;2024-02-16T14:01:29;12.23;;;7.50;;
6141;SDS011;71289;51.552;6.210;2024-02-16T14:03:55;10.73;;;7.40;;
6141;SDS011;71289;51.552;6.210;2024-02-16T14:06:21;12.27;;;7.83;;
6141;SDS011;71289;51.552;6.210;2024-02-16T14:08:47;6.33;;;5.73;;
6141;SDS011;71289;51.552;6.210;2024-02-16T14:11:17;9.30;;;6.10;;
6141;SDS011;71289;51.552;6.210;2024-02-16T14:13:43;9.87;;;7.00;;
6141;SDS011;71289;51.552;6.210;2024-02-16T14:16:09;10.47;;;7.77;;
6141;SDS011;71289;51.552;6.210;2024-02-16T14:18:35;9.03;;;6.13;;
6141;SDS011;71289;51.552;6.210;2024-02-16T14:21:01;10.70;;;6.83;;
6141;SDS011;71289;51.552;6.210;2024-02-16T14:23:28;10.63;;;7.80;;
6141;SDS011;71289;51.552;6.210;2024-02-16T14:25:55;11.57;;;7.27;;
6141;SDS011;71289;51.552;6.210;2024-02-16T14:28:20;7.87;;;6.47;;
6141;SDS011;71289;51.552;6.210;2024-02-16T14:30:46;14.90;;;7.83;;
6141;SDS011;71289;51.552;6.210;2024-02-16T14:33:12;11.37;;;8.00;;
6141;SDS011;71289;51.552;6.210;2024-02-16T14:35:37;6.60;;;5.00;;
6141;SDS011;71289;51.552;6.210;2024-02-16T14:38:03;11.20;;;7.57;;
6141;SDS011;71289;51.552;6.210;2024-02-16T14:40:32;8.87;;;6.63;;
6141;SDS011;71289;51.552;6.210;2024-02-16T14:42:58;10.13;;;7.40;;
6141;SDS011;71289;51.552;6.210;2024-02-16T14:45:24;12.10;;;8.20;;
6141;SDS011;71289;51.552;6.210;2024-02-16T14:47:49;8.53;;;6.37;;
6141;SDS011;71289;51.552;6.210;2024-02-16T14:50:15;7.17;;;6.30;;
6141;SDS011;71289;51.552;6.210;2024-02-16T14:52:42;8.63;;;5.73;;
6141;SDS011;71289;51.552;6.210;2024-02-16T14:55:10;7.43;;;5.97;;
6141;SDS011;71289;51.552;6.210;2024-02-16T14:57:38;6.27;;;5.67;;
6141;SDS011;71289;51.552;6.210;2024-02-16T15:00:05;9.13;;;6.50;;
6141;SDS011;71289;51.552;6.210;2024-02-16T15:02:32;6.50;;;5.67;;
6141;SDS011;71289;51.552;6.210;2024-02-16T15:04:57;7.80;;;5.07;;